sensor_id;sensor_type;location;lat;lon;timestamp;temperature;humidity
25933;DHT22;13731;51.166;4.474;2023-03-01T00:01:25;0.90;1.00
25933;DHT22;13731;51.166;4.474;2023-03-01T00:03:51;0.70;1.00
25933;DHT22;13731;51.166;4.474;2023-03-01T00:06:19;0.90;1.00
25933;DHT22;13731;51.166;4.474;2023-03-01T00:08:45;1.00;1.00
25933;DHT22;13731;51.166;4.474;2023-03-01T00:13:47;0.80;1.00
25933;DHT22;13731;51.166;4.474;2023-03-01T00:16:20;0.70;1.00
25933;DHT22;13731;51.166;4.474;2023-03-01T00:18:47;0.70;1.00
25933;DHT22;13731;51.166;4.474;2023-03-01T00:21:14;0.70;1.00
25933;DHT22;13731;51.166;4.474;2023-03-01T00:23:40;0.70;1.00
25933;DHT22;13731;51.166;4.474;2023-03-01T00:26:08;0.70;1.00
25933;DHT22;13731;51.166;4.474;2023-03-01T00:28:35;0.70;1.00
25933;DHT22;13731;51.166;4.474;2023-03-01T00:31:10;0.70;1.00
25933;DHT22;13731;51.166;4.474;2023-03-01T00:33:38;0.70;1.00
25933;DHT22;13731;51.166;4.474;2023-03-01T00:36:05;0.80;1.00
25933;DHT22;13731;51.166;4.474;2023-03-01T00:38:35;0.70;1.00
25933;DHT22;13731;51.166;4.474;2023-03-01T00:41:07;0.70;1.00
25933;DHT22;13731;51.166;4.474;2023-03-01T00:43:34;0.90;1.00
25933;DHT22;13731;51.166;4.474;2023-03-01T00:46:04;0.80;1.00
25933;DHT22;13731;51.166;4.474;2023-03-01T00:48:30;0.60;3.30
25933;DHT22;13731;51.166;4.474;2023-03-01T00:50:56;0.60;55.00
25933;DHT22;13731;51.166;4.474;2023-03-01T00:53:22;0.60;84.10
25933;DHT22;13731;51.166;4.474;2023-03-01T00:55:48;0.50;99.90
25933;DHT22;13731;51.166;4.474;2023-03-01T00:58:13;0.40;99.90
25933;DHT22;13731;51.166;4.474;2023-03-01T01:00:39;0.40;99.90
25933;DHT22;13731;51.166;4.474;2023-03-01T01:03:05;0.30;99.90
25933;DHT22;13731;51.166;4.474;2023-03-01T01:05:34;0.30;99.90
25933;DHT22;13731;51.166;4.474;2023-03-01T01:08:00;0.20;99.90
25933;DHT22;13731;51.166;4.474;2023-03-01T01:10:26;0.40;99.90
25933;DHT22;13731;51.166;4.474;2023-03-01T01:12:52;0.50;99.90
25933;DHT22;13731;51.166;4.474;2023-03-01T01:15:18;0.50;99.90
25933;DHT22;13731;51.166;4.474;2023-03-01T01:17:44;0.50;99.90
25933;DHT22;13731;51.166;4.474;2023-03-01T01:20:11;0.50;99.90
25933;DHT22;13731;51.166;4.474;2023-03-01T01:22:37;0.50;99.90
25933;DHT22;13731;51.166;4.474;2023-03-01T01:25:03;0.50;99.90
25933;DHT22;13731;51.166;4.474;2023-03-01T01:27:29;0.50;99.90
25933;DHT22;13731;51.166;4.474;2023-03-01T01:29:56;0.40;99.90
25933;DHT22;13731;51.166;4.474;2023-03-01T01:32:22;0.30;99.90
25933;DHT22;13731;51.166;4.474;2023-03-01T01:34:48;0.20;99.90
25933;DHT22;13731;51.166;4.474;2023-03-01T01:37:14;0.20;99.90
25933;DHT22;13731;51.166;4.474;2023-03-01T01:39:40;0.20;99.90
25933;DHT22;13731;51.166;4.474;2023-03-01T01:42:16;0.10;99.90
25933;DHT22;13731;51.166;4.474;2023-03-01T01:44:45;0.10;1.00
25933;DHT22;13731;51.166;4.474;2023-03-01T01:47:20;0.10;1.00
25933;DHT22;13731;51.166;4.474;2023-03-01T01:49:51;0.10;1.00
25933;DHT22;13731;51.166;4.474;2023-03-01T01:52:26;0.00;1.00
25933;DHT22;13731;51.166;4.474;2023-03-01T01:55:11;0.00;1.00
25933;DHT22;13731;51.166;4.474;2023-03-01T01:57:41;0.10;1.00
25933;DHT22;13731;51.166;4.474;2023-03-01T02:00:16;0.00;1.00
25933;DHT22;13731;51.166;4.474;2023-03-01T02:02:46;0.00;1.00
25933;DHT22;13731;51.166;4.474;2023-03-01T02:05:24;-0.10;1.00
25933;DHT22;13731;51.166;4.474;2023-03-01T02:07:52;0.00;1.00
25933;DHT22;13731;51.166;4.474;2023-03-01T02:10:21;0.00;1.00
25933;DHT22;13731;51.166;4.474;2023-03-01T02:12:48;0.10;1.00
25933;DHT22;13731;51.166;4.474;2023-03-01T02:15:14;0.00;1.00
25933;DHT22;13731;51.166;4.474;2023-03-01T02:17:40;0.00;1.00
25933;DHT22;13731;51.166;4.474;2023-03-01T02:22:37;0.10;1.00
25933;DHT22;13731;51.166;4.474;2023-03-01T02:28:02;-0.10;1.00
25933;DHT22;13731;51.166;4.474;2023-03-01T02:30:30;-0.20;1.00
25933;DHT22;13731;51.166;4.474;2023-03-01T02:32:57;-0.20;1.00
25933;DHT22;13731;51.166;4.474;2023-03-01T02:35:34;-0.30;1.00
25933;DHT22;13731;51.166;4.474;2023-03-01T02:38:01;-0.40;99.90
25933;DHT22;13731;51.166;4.474;2023-03-01T02:40:29;-0.40;99.90
25933;DHT22;13731;51.166;4.474;2023-03-01T02:42:58;-0.40;99.90
25933;DHT22;13731;51.166;4.474;2023-03-01T02:45:26;-0.40;99.90
25933;DHT22;13731;51.166;4.474;2023-03-01T02:47:56;-0.40;99.90
25933;DHT22;13731;51.166;4.474;2023-03-01T02:55:42;-0.50;1.00
25933;DHT22;13731;51.166;4.474;2023-03-01T02:58:08;-0.50;99.90
25933;DHT22;13731;51.166;4.474;2023-03-01T03:00:40;-0.50;99.90
25933;DHT22;13731;51.166;4.474;2023-03-01T03:03:14;-0.60;1.00
25933;DHT22;13731;51.166;4.474;2023-03-01T03:05:41;-0.60;1.00
25933;DHT22;13731;51.166;4.474;2023-03-01T03:08:07;-0.60;1.00
25933;DHT22;13731;51.166;4.474;2023-03-01T03:10:38;-0.60;1.00
25933;DHT22;13731;51.166;4.474;2023-03-01T03:13:14;-0.60;1.00
25933;DHT22;13731;51.166;4.474;2023-03-01T03:15:43;-0.50;1.00
25933;DHT22;13731;51.166;4.474;2023-03-01T03:18:12;-0.50;1.00
25933;DHT22;13731;51.166;4.474;2023-03-01T03:20:40;-0.60;1.00
25933;DHT22;13731;51.166;4.474;2023-03-01T03:23:06;-0.60;1.00
25933;DHT22;13731;51.166;4.474;2023-03-01T03:25:32;-0.70;1.00
25933;DHT22;13731;51.166;4.474;2023-03-01T03:28:04;-0.60;1.00
25933;DHT22;13731;51.166;4.474;2023-03-01T03:30:38;-0.60;1.00
25933;DHT22;13731;51.166;4.474;2023-03-01T03:33:08;-0.60;1.00
25933;DHT22;13731;51.166;4.474;2023-03-01T03:35:39;-0.60;80.20
25933;DHT22;13731;51.166;4.474;2023-03-01T03:38:07;-0.50;5.20
25933;DHT22;13731;51.166;4.474;2023-03-01T03:40:45;-0.30;1.00
25933;DHT22;13731;51.166;4.474;2023-03-01T03:43:17;-0.40;1.00
25933;DHT22;13731;51.166;4.474;2023-03-01T03:45:45;-0.60;1.00
25933;DHT22;13731;51.166;4.474;2023-03-01T03:48:11;-0.60;1.00
25933;DHT22;13731;51.166;4.474;2023-03-01T03:50:39;-0.70;58.70
25933;DHT22;13731;51.166;4.474;2023-03-01T03:53:08;-0.80;99.90
25933;DHT22;13731;51.166;4.474;2023-03-01T03:55:35;-0.90;99.90
25933;DHT22;13731;51.166;4.474;2023-03-01T03:58:07;-0.90;99.90
25933;DHT22;13731;51.166;4.474;2023-03-01T04:00:35;-0.80;99.90
25933;DHT22;13731;51.166;4.474;2023-03-01T04:03:01;-0.80;99.90
25933;DHT22;13731;51.166;4.474;2023-03-01T04:05:27;-0.90;99.90
25933;DHT22;13731;51.166;4.474;2023-03-01T04:07:53;-0.80;99.90
25933;DHT22;13731;51.166;4.474;2023-03-01T04:10:31;-0.80;99.90
25933;DHT22;13731;51.166;4.474;2023-03-01T04:12:57;-0.90;99.90
25933;DHT22;13731;51.166;4.474;2023-03-01T04:15:25;-0.90;1.00
25933;DHT22;13731;51.166;4.474;2023-03-01T04:17:52;-1.00;1.00
25933;DHT22;13731;51.166;4.474;2023-03-01T04:20:22;-0.70;99.90
25933;DHT22;13731;51.166;4.474;2023-03-01T04:23:03;-0.60;99.90
25933;DHT22;13731;51.166;4.474;2023-03-01T04:25:38;-0.50;99.90
25933;DHT22;13731;51.166;4.474;2023-03-01T04:28:04;-0.70;99.90
25933;DHT22;13731;51.166;4.474;2023-03-01T04:30:30;-0.80;99.90
25933;DHT22;13731;51.166;4.474;2023-03-01T04:33:09;-0.90;99.90
25933;DHT22;13731;51.166;4.474;2023-03-01T04:35:36;-0.80;1.00
25933;DHT22;13731;51.166;4.474;2023-03-01T04:38:03;-0.80;1.00
25933;DHT22;13731;51.166;4.474;2023-03-01T04:40:29;-0.60;99.90
25933;DHT22;13731;51.166;4.474;2023-03-01T04:42:55;-0.40;64.40
25933;DHT22;13731;51.166;4.474;2023-03-01T04:45:21;-0.30;1.00
25933;DHT22;13731;51.166;4.474;2023-03-01T04:47:47;-0.40;1.00
25933;DHT22;13731;51.166;4.474;2023-03-01T04:50:16;-0.60;1.00
25933;DHT22;13731;51.166;4.474;2023-03-01T04:52:43;-0.80;99.90
25933;DHT22;13731;51.166;4.474;2023-03-01T04:55:10;-0.90;1.00
25933;DHT22;13731;51.166;4.474;2023-03-01T04:57:36;-0.80;99.90
25933;DHT22;13731;51.166;4.474;2023-03-01T05:00:04;-0.80;99.90
25933;DHT22;13731;51.166;4.474;2023-03-01T05:02:52;-1.00;1.00
25933;DHT22;13731;51.166;4.474;2023-03-01T05:05:30;-1.00;1.00
25933;DHT22;13731;51.166;4.474;2023-03-01T05:07:59;-1.00;1.00
25933;DHT22;13731;51.166;4.474;2023-03-01T05:10:26;-1.00;1.00
25933;DHT22;13731;51.166;4.474;2023-03-01T05:12:55;-1.00;1.00
25933;DHT22;13731;51.166;4.474;2023-03-01T05:15:24;-0.90;1.00
25933;DHT22;13731;51.166;4.474;2023-03-01T05:17:58;-0.90;1.00
25933;DHT22;13731;51.166;4.474;2023-03-01T05:20:28;-1.00;1.00
25933;DHT22;13731;51.166;4.474;2023-03-01T05:22:57;-1.20;99.90
25933;DHT22;13731;51.166;4.474;2023-03-01T05:25:24;-1.10;99.90
25933;DHT22;13731;51.166;4.474;2023-03-01T05:27:50;-1.00;94.70
25933;DHT22;13731;51.166;4.474;2023-03-01T05:30:16;-1.00;99.90
25933;DHT22;13731;51.166;4.474;2023-03-01T05:32:45;-1.00;5.70
25933;DHT22;13731;51.166;4.474;2023-03-01T05:35:12;-0.80;1.00
25933;DHT22;13731;51.166;4.474;2023-03-01T05:37:40;-0.70;99.90
25933;DHT22;13731;51.166;4.474;2023-03-01T05:40:08;-0.70;99.90
25933;DHT22;13731;51.166;4.474;2023-03-01T05:42:43;-0.80;99.90
25933;DHT22;13731;51.166;4.474;2023-03-01T05:45:09;-1.00;1.00
25933;DHT22;13731;51.166;4.474;2023-03-01T05:47:35;-1.10;1.00
25933;DHT22;13731;51.166;4.474;2023-03-01T05:50:02;-1.20;72.00
25933;DHT22;13731;51.166;4.474;2023-03-01T05:52:28;-1.20;99.90
25933;DHT22;13731;51.166;4.474;2023-03-01T05:54:54;-1.20;99.90
25933;DHT22;13731;51.166;4.474;2023-03-01T05:57:20;-1.20;99.90
25933;DHT22;13731;51.166;4.474;2023-03-01T05:59:46;-1.30;99.90
25933;DHT22;13731;51.166;4.474;2023-03-01T06:02:12;-1.30;99.90
25933;DHT22;13731;51.166;4.474;2023-03-01T06:04:38;-1.30;1.00
25933;DHT22;13731;51.166;4.474;2023-03-01T06:07:04;-1.30;1.00
25933;DHT22;13731;51.166;4.474;2023-03-01T06:09:30;-1.30;99.90
25933;DHT22;13731;51.166;4.474;2023-03-01T06:11:56;-1.30;1.00
25933;DHT22;13731;51.166;4.474;2023-03-01T06:14:21;-1.30;1.00
25933;DHT22;13731;51.166;4.474;2023-03-01T06:16:47;-1.40;1.00
25933;DHT22;13731;51.166;4.474;2023-03-01T06:19:13;-1.30;1.00
25933;DHT22;13731;51.166;4.474;2023-03-01T06:21:39;-1.20;1.00
25933;DHT22;13731;51.166;4.474;2023-03-01T06:24:05;-1.00;99.90
25933;DHT22;13731;51.166;4.474;2023-03-01T06:26:32;-0.80;1.00
25933;DHT22;13731;51.166;4.474;2023-03-01T06:28:58;-0.90;1.00
25933;DHT22;13731;51.166;4.474;2023-03-01T06:31:24;-1.10;16.90
25933;DHT22;13731;51.166;4.474;2023-03-01T06:33:50;-1.20;99.90
25933;DHT22;13731;51.166;4.474;2023-03-01T06:36:16;-1.30;99.90
25933;DHT22;13731;51.166;4.474;2023-03-01T06:38:44;-1.20;1.00
25933;DHT22;13731;51.166;4.474;2023-03-01T06:41:10;-1.30;1.00
25933;DHT22;13731;51.166;4.474;2023-03-01T06:43:36;-1.30;1.00
25933;DHT22;13731;51.166;4.474;2023-03-01T06:46:05;-1.30;1.00
25933;DHT22;13731;51.166;4.474;2023-03-01T06:48:33;-1.30;1.00
25933;DHT22;13731;51.166;4.474;2023-03-01T06:51:00;-1.30;1.00
25933;DHT22;13731;51.166;4.474;2023-03-01T06:53:29;-1.30;1.00
25933;DHT22;13731;51.166;4.474;2023-03-01T06:55:59;-1.30;1.00
25933;DHT22;13731;51.166;4.474;2023-03-01T06:58:27;-1.20;1.00
25933;DHT22;13731;51.166;4.474;2023-03-01T07:00:54;-1.00;1.00
25933;DHT22;13731;51.166;4.474;2023-03-01T07:03:20;-1.00;99.90
25933;DHT22;13731;51.166;4.474;2023-03-01T07:05:49;-0.90;99.90
25933;DHT22;13731;51.166;4.474;2023-03-01T07:08:15;-0.60;1.00
25933;DHT22;13731;51.166;4.474;2023-03-01T07:10:41;-0.60;1.00
25933;DHT22;13731;51.166;4.474;2023-03-01T07:13:08;-0.70;1.00
25933;DHT22;13731;51.166;4.474;2023-03-01T07:15:34;-0.80;1.00
25933;DHT22;13731;51.166;4.474;2023-03-01T07:18:00;-0.60;1.00
25933;DHT22;13731;51.166;4.474;2023-03-01T07:20:26;-0.40;1.00
25933;DHT22;13731;51.166;4.474;2023-03-01T07:22:53;-0.30;99.90
25933;DHT22;13731;51.166;4.474;2023-03-01T07:25:19;-0.20;31.80
25933;DHT22;13731;51.166;4.474;2023-03-01T07:27:49;-0.20;99.90
25933;DHT22;13731;51.166;4.474;2023-03-01T07:30:16;-0.20;84.90
25933;DHT22;13731;51.166;4.474;2023-03-01T07:32:42;-0.10;1.00
25933;DHT22;13731;51.166;4.474;2023-03-01T07:35:08;0.00;18.20
25933;DHT22;13731;51.166;4.474;2023-03-01T07:37:34;0.30;99.90
25933;DHT22;13731;51.166;4.474;2023-03-01T07:40:00;0.30;99.90
25933;DHT22;13731;51.166;4.474;2023-03-01T07:42:26;0.00;1.00
25933;DHT22;13731;51.166;4.474;2023-03-01T07:44:52;0.00;1.00
25933;DHT22;13731;51.166;4.474;2023-03-01T07:47:18;0.10;1.00
25933;DHT22;13731;51.166;4.474;2023-03-01T07:49:44;0.30;1.00
25933;DHT22;13731;51.166;4.474;2023-03-01T07:52:13;0.50;99.90
25933;DHT22;13731;51.166;4.474;2023-03-01T07:54:39;0.60;99.90
25933;DHT22;13731;51.166;4.474;2023-03-01T07:57:07;0.70;85.50
25933;DHT22;13731;51.166;4.474;2023-03-01T07:59:33;0.70;1.00
25933;DHT22;13731;51.166;4.474;2023-03-01T08:01:59;0.70;93.00
25933;DHT22;13731;51.166;4.474;2023-03-01T08:04:25;0.90;1.00
25933;DHT22;13731;51.166;4.474;2023-03-01T08:06:52;0.90;1.00
25933;DHT22;13731;51.166;4.474;2023-03-01T08:09:18;1.10;1.00
25933;DHT22;13731;51.166;4.474;2023-03-01T08:11:44;1.30;1.00
25933;DHT22;13731;51.166;4.474;2023-03-01T08:14:10;1.30;99.90
25933;DHT22;13731;51.166;4.474;2023-03-01T08:16:36;1.40;1.00
25933;DHT22;13731;51.166;4.474;2023-03-01T08:19:10;1.30;99.90
25933;DHT22;13731;51.166;4.474;2023-03-01T08:21:36;1.30;99.90
25933;DHT22;13731;51.166;4.474;2023-03-01T08:24:04;1.30;1.00
25933;DHT22;13731;51.166;4.474;2023-03-01T08:26:32;1.20;1.00
25933;DHT22;13731;51.166;4.474;2023-03-01T08:29:00;1.10;1.00
25933;DHT22;13731;51.166;4.474;2023-03-01T08:31:33;1.10;1.00
25933;DHT22;13731;51.166;4.474;2023-03-01T08:34:02;1.10;1.00
25933;DHT22;13731;51.166;4.474;2023-03-01T08:36:31;1.30;1.00
25933;DHT22;13731;51.166;4.474;2023-03-01T08:38:58;1.40;99.90
25933;DHT22;13731;51.166;4.474;2023-03-01T08:41:24;1.50;99.90
25933;DHT22;13731;51.166;4.474;2023-03-01T08:43:50;1.70;99.90
25933;DHT22;13731;51.166;4.474;2023-03-01T08:46:16;1.80;99.90
25933;DHT22;13731;51.166;4.474;2023-03-01T08:48:42;1.90;99.90
25933;DHT22;13731;51.166;4.474;2023-03-01T08:51:18;2.10;99.90
25933;DHT22;13731;51.166;4.474;2023-03-01T08:53:44;2.10;1.50
25933;DHT22;13731;51.166;4.474;2023-03-01T08:56:10;2.20;29.50
25933;DHT22;13731;51.166;4.474;2023-03-01T08:58:37;2.30;1.00
25933;DHT22;13731;51.166;4.474;2023-03-01T09:01:08;2.40;1.00
25933;DHT22;13731;51.166;4.474;2023-03-01T09:03:34;2.40;1.00
25933;DHT22;13731;51.166;4.474;2023-03-01T09:06:02;2.50;1.00
25933;DHT22;13731;51.166;4.474;2023-03-01T09:08:29;2.50;1.00
25933;DHT22;13731;51.166;4.474;2023-03-01T09:10:55;2.70;1.00
25933;DHT22;13731;51.166;4.474;2023-03-01T09:13:21;2.80;1.00
25933;DHT22;13731;51.166;4.474;2023-03-01T09:15:50;2.90;1.00
25933;DHT22;13731;51.166;4.474;2023-03-01T09:18:16;3.00;99.90
25933;DHT22;13731;51.166;4.474;2023-03-01T09:20:42;3.20;99.90
25933;DHT22;13731;51.166;4.474;2023-03-01T09:23:08;3.30;99.90
25933;DHT22;13731;51.166;4.474;2023-03-01T09:25:35;3.30;99.90
25933;DHT22;13731;51.166;4.474;2023-03-01T09:28:01;3.50;99.90
25933;DHT22;13731;51.166;4.474;2023-03-01T09:30:27;3.60;99.90
25933;DHT22;13731;51.166;4.474;2023-03-01T09:32:53;3.70;99.90
25933;DHT22;13731;51.166;4.474;2023-03-01T09:35:19;3.80;99.90
25933;DHT22;13731;51.166;4.474;2023-03-01T09:37:45;3.90;99.90
25933;DHT22;13731;51.166;4.474;2023-03-01T09:40:20;3.80;99.90
25933;DHT22;13731;51.166;4.474;2023-03-01T09:45:33;3.90;99.90
25933;DHT22;13731;51.166;4.474;2023-03-01T09:48:01;3.90;99.90
25933;DHT22;13731;51.166;4.474;2023-03-01T09:50:33;4.00;99.90
25933;DHT22;13731;51.166;4.474;2023-03-01T09:55:39;4.30;99.90
25933;DHT22;13731;51.166;4.474;2023-03-01T09:58:13;4.30;99.90
25933;DHT22;13731;51.166;4.474;2023-03-01T10:00:49;4.30;99.90
25933;DHT22;13731;51.166;4.474;2023-03-01T10:03:26;4.30;99.90
25933;DHT22;13731;51.166;4.474;2023-03-01T10:06:14;4.40;99.90
25933;DHT22;13731;51.166;4.474;2023-03-01T10:11:26;4.60;99.90
25933;DHT22;13731;51.166;4.474;2023-03-01T10:14:18;4.70;99.90
25933;DHT22;13731;51.166;4.474;2023-03-01T10:19:43;5.10;99.90
25933;DHT22;13731;51.166;4.474;2023-03-01T10:22:20;5.40;99.90
25933;DHT22;13731;51.166;4.474;2023-03-01T10:24:47;5.40;99.90
25933;DHT22;13731;51.166;4.474;2023-03-01T10:27:24;6.10;99.90
25933;DHT22;13731;51.166;4.474;2023-03-01T10:32:54;8.80;47.30
25933;DHT22;13731;51.166;4.474;2023-03-01T10:35:23;9.30;16.00
25933;DHT22;13731;51.166;4.474;2023-03-01T10:38:17;10.20;4.70
25933;DHT22;13731;51.166;4.474;2023-03-01T10:40:58;10.20;1.00
25933;DHT22;13731;51.166;4.474;2023-03-01T10:43:40;9.80;1.00
25933;DHT22;13731;51.166;4.474;2023-03-01T10:46:28;10.60;1.00
25933;DHT22;13731;51.166;4.474;2023-03-01T10:51:44;10.90;1.00
25933;DHT22;13731;51.166;4.474;2023-03-01T10:54:30;11.20;1.00
25933;DHT22;13731;51.166;4.474;2023-03-01T10:57:01;11.70;1.00
25933;DHT22;13731;51.166;4.474;2023-03-01T10:59:38;11.50;1.00
25933;DHT22;13731;51.166;4.474;2023-03-01T11:02:24;11.60;1.00
25933;DHT22;13731;51.166;4.474;2023-03-01T11:08:06;12.20;1.00
25933;DHT22;13731;51.166;4.474;2023-03-01T11:10:35;12.10;1.00
25933;DHT22;13731;51.166;4.474;2023-03-01T11:13:14;11.80;1.00
25933;DHT22;13731;51.166;4.474;2023-03-01T11:15:41;11.80;1.00
25933;DHT22;13731;51.166;4.474;2023-03-01T11:18:21;11.80;1.00
25933;DHT22;13731;51.166;4.474;2023-03-01T11:20:48;12.00;1.00
25933;DHT22;13731;51.166;4.474;2023-03-01T11:23:17;11.40;1.00
25933;DHT22;13731;51.166;4.474;2023-03-01T11:26:07;12.20;1.00
25933;DHT22;13731;51.166;4.474;2023-03-01T11:28:36;13.20;1.00
25933;DHT22;13731;51.166;4.474;2023-03-01T11:31:09;12.30;1.00
25933;DHT22;13731;51.166;4.474;2023-03-01T11:33:59;11.50;1.00
25933;DHT22;13731;51.166;4.474;2023-03-01T11:36:48;12.40;1.00
25933;DHT22;13731;51.166;4.474;2023-03-01T11:39:38;12.60;1.00
25933;DHT22;13731;51.166;4.474;2023-03-01T11:42:18;13.90;1.00
25933;DHT22;13731;51.166;4.474;2023-03-01T11:44:53;13.90;1.00
25933;DHT22;13731;51.166;4.474;2023-03-01T11:56:09;15.60;1.00
25933;DHT22;13731;51.166;4.474;2023-03-01T12:09:09;14.70;1.00
25933;DHT22;13731;51.166;4.474;2023-03-01T12:15:04;16.40;1.00
25933;DHT22;13731;51.166;4.474;2023-03-01T12:20:12;16.00;1.00
25933;DHT22;13731;51.166;4.474;2023-03-01T12:27:58;16.20;1.00
25933;DHT22;13731;51.166;4.474;2023-03-01T12:41:52;17.20;1.00
25933;DHT22;13731;51.166;4.474;2023-03-01T12:44:41;17.90;1.00
25933;DHT22;13731;51.166;4.474;2023-03-01T12:50:21;18.80;1.00
25933;DHT22;13731;51.166;4.474;2023-03-01T12:52:56;17.70;1.00
25933;DHT22;13731;51.166;4.474;2023-03-01T12:55:36;18.10;1.00
25933;DHT22;13731;51.166;4.474;2023-03-01T13:01:00;18.20;1.00
25933;DHT22;13731;51.166;4.474;2023-03-01T13:11:42;16.10;1.00
25933;DHT22;13731;51.166;4.474;2023-03-01T13:16:47;15.70;1.00
25933;DHT22;13731;51.166;4.474;2023-03-01T13:19:21;17.10;1.00
25933;DHT22;13731;51.166;4.474;2023-03-01T13:21:49;17.60;1.00
25933;DHT22;13731;51.166;4.474;2023-03-01T13:29:48;16.10;1.00
25933;DHT22;13731;51.166;4.474;2023-03-01T13:32:27;15.60;1.00
25933;DHT22;13731;51.166;4.474;2023-03-01T13:37:52;15.80;1.00
25933;DHT22;13731;51.166;4.474;2023-03-01T13:42:49;14.50;1.00
25933;DHT22;13731;51.166;4.474;2023-03-01T13:47:45;14.30;1.00
25933;DHT22;13731;51.166;4.474;2023-03-01T13:50:23;14.80;1.00
25933;DHT22;13731;51.166;4.474;2023-03-01T13:53:00;15.00;1.00
25933;DHT22;13731;51.166;4.474;2023-03-01T13:58:03;15.30;1.00
25933;DHT22;13731;51.166;4.474;2023-03-01T14:00:39;16.70;1.00
25933;DHT22;13731;51.166;4.474;2023-03-01T14:05:42;17.50;1.00
25933;DHT22;13731;51.166;4.474;2023-03-01T14:08:23;17.10;1.00
25933;DHT22;13731;51.166;4.474;2023-03-01T14:13:27;19.30;1.00
25933;DHT22;13731;51.166;4.474;2023-03-01T14:21:20;17.60;1.00
25933;DHT22;13731;51.166;4.474;2023-03-01T14:23:46;17.80;1.00
25933;DHT22;13731;51.166;4.474;2023-03-01T14:26:12;16.90;1.00
25933;DHT22;13731;51.166;4.474;2023-03-01T14:28:39;16.60;1.00
25933;DHT22;13731;51.166;4.474;2023-03-01T14:33:55;17.70;1.00
25933;DHT22;13731;51.166;4.474;2023-03-01T14:36:27;17.80;1.00
25933;DHT22;13731;51.166;4.474;2023-03-01T14:38:53;17.40;1.00
25933;DHT22;13731;51.166;4.474;2023-03-01T14:41:25;18.00;1.00
25933;DHT22;13731;51.166;4.474;2023-03-01T14:43:58;17.00;1.00
25933;DHT22;13731;51.166;4.474;2023-03-01T14:48:57;16.10;1.00
25933;DHT22;13731;51.166;4.474;2023-03-01T14:51:27;15.70;1.00
25933;DHT22;13731;51.166;4.474;2023-03-01T14:53:53;17.10;1.00
25933;DHT22;13731;51.166;4.474;2023-03-01T14:56:20;17.20;1.00
25933;DHT22;13731;51.166;4.474;2023-03-01T14:58:46;16.30;1.00
25933;DHT22;13731;51.166;4.474;2023-03-01T15:01:17;16.00;1.00
25933;DHT22;13731;51.166;4.474;2023-03-01T15:03:46;16.00;1.00
25933;DHT22;13731;51.166;4.474;2023-03-01T15:06:17;15.50;1.00
25933;DHT22;13731;51.166;4.474;2023-03-01T15:08:49;15.60;1.00
25933;DHT22;13731;51.166;4.474;2023-03-01T15:13:51;16.10;1.00
25933;DHT22;13731;51.166;4.474;2023-03-01T15:16:23;17.20;1.00
25933;DHT22;13731;51.166;4.474;2023-03-01T15:19:04;15.90;1.00
25933;DHT22;13731;51.166;4.474;2023-03-01T15:21:35;14.00;1.00
25933;DHT22;13731;51.166;4.474;2023-03-01T15:29:26;11.60;1.00
25933;DHT22;13731;51.166;4.474;2023-03-01T15:32:00;10.50;1.00
25933;DHT22;13731;51.166;4.474;2023-03-01T15:34:33;9.90;1.00
25933;DHT22;13731;51.166;4.474;2023-03-01T15:37:01;10.00;1.00
25933;DHT22;13731;51.166;4.474;2023-03-01T15:39:41;9.70;1.00
25933;DHT22;13731;51.166;4.474;2023-03-01T15:42:57;9.20;1.00
25933;DHT22;13731;51.166;4.474;2023-03-01T15:47:35;8.70;1.00
25933;DHT22;13731;51.166;4.474;2023-03-01T15:50:01;8.60;1.00
25933;DHT22;13731;51.166;4.474;2023-03-01T15:52:35;8.50;1.00
25933;DHT22;13731;51.166;4.474;2023-03-01T15:55:24;8.30;1.00
25933;DHT22;13731;51.166;4.474;2023-03-01T15:58:06;8.00;1.00
25933;DHT22;13731;51.166;4.474;2023-03-01T16:00:35;8.00;1.00
25933;DHT22;13731;51.166;4.474;2023-03-01T16:03:01;7.90;1.00
25933;DHT22;13731;51.166;4.474;2023-03-01T16:05:30;7.70;1.00
25933;DHT22;13731;51.166;4.474;2023-03-01T16:07:58;7.70;1.00
25933;DHT22;13731;51.166;4.474;2023-03-01T16:10:26;7.70;1.00
25933;DHT22;13731;51.166;4.474;2023-03-01T16:12:52;7.60;1.00
25933;DHT22;13731;51.166;4.474;2023-03-01T16:15:27;7.50;1.00
25933;DHT22;13731;51.166;4.474;2023-03-01T16:17:53;7.40;1.00
25933;DHT22;13731;51.166;4.474;2023-03-01T16:20:23;7.40;1.00
25933;DHT22;13731;51.166;4.474;2023-03-01T16:22:49;7.40;1.00
25933;DHT22;13731;51.166;4.474;2023-03-01T16:25:17;7.40;1.00
25933;DHT22;13731;51.166;4.474;2023-03-01T16:27:48;7.40;1.00
25933;DHT22;13731;51.166;4.474;2023-03-01T16:30:17;7.40;1.00
25933;DHT22;13731;51.166;4.474;2023-03-01T16:32:45;7.40;1.00
25933;DHT22;13731;51.166;4.474;2023-03-01T16:35:13;7.30;1.00
25933;DHT22;13731;51.166;4.474;2023-03-01T16:37:39;7.10;1.00
25933;DHT22;13731;51.166;4.474;2023-03-01T16:40:16;7.00;1.00
25933;DHT22;13731;51.166;4.474;2023-03-01T16:42:42;7.00;1.00
25933;DHT22;13731;51.166;4.474;2023-03-01T16:45:09;7.00;1.00
25933;DHT22;13731;51.166;4.474;2023-03-01T16:47:35;7.50;1.00
25933;DHT22;13731;51.166;4.474;2023-03-01T16:50:01;7.90;1.00
25933;DHT22;13731;51.166;4.474;2023-03-01T16:52:27;8.00;1.00
25933;DHT22;13731;51.166;4.474;2023-03-01T16:54:54;8.00;1.00
25933;DHT22;13731;51.166;4.474;2023-03-01T16:57:20;8.20;1.00
25933;DHT22;13731;51.166;4.474;2023-03-01T16:59:46;8.00;1.00
25933;DHT22;13731;51.166;4.474;2023-03-01T17:02:13;8.10;1.00
25933;DHT22;13731;51.166;4.474;2023-03-01T17:04:40;7.90;1.00
25933;DHT22;13731;51.166;4.474;2023-03-01T17:07:06;7.40;1.00
25933;DHT22;13731;51.166;4.474;2023-03-01T17:09:36;7.30;1.00
25933;DHT22;13731;51.166;4.474;2023-03-01T17:12:04;6.90;1.00
25933;DHT22;13731;51.166;4.474;2023-03-01T17:14:30;6.60;1.00
25933;DHT22;13731;51.166;4.474;2023-03-01T17:16:56;6.40;1.00
25933;DHT22;13731;51.166;4.474;2023-03-01T17:19:22;6.20;1.00
25933;DHT22;13731;51.166;4.474;2023-03-01T17:21:47;6.10;1.00
25933;DHT22;13731;51.166;4.474;2023-03-01T17:24:13;6.10;1.00
25933;DHT22;13731;51.166;4.474;2023-03-01T17:26:39;6.00;1.00
25933;DHT22;13731;51.166;4.474;2023-03-01T17:29:06;5.90;1.00
25933;DHT22;13731;51.166;4.474;2023-03-01T17:31:32;5.80;1.00
25933;DHT22;13731;51.166;4.474;2023-03-01T17:33:58;5.80;1.00
25933;DHT22;13731;51.166;4.474;2023-03-01T17:36:24;5.80;1.00
25933;DHT22;13731;51.166;4.474;2023-03-01T17:38:51;6.00;1.00
25933;DHT22;13731;51.166;4.474;2023-03-01T17:41:17;6.20;1.00
25933;DHT22;13731;51.166;4.474;2023-03-01T17:43:47;6.20;1.00
25933;DHT22;13731;51.166;4.474;2023-03-01T17:46:13;6.00;1.00
25933;DHT22;13731;51.166;4.474;2023-03-01T17:48:39;5.90;1.00
25933;DHT22;13731;51.166;4.474;2023-03-01T17:51:06;5.70;1.00
25933;DHT22;13731;51.166;4.474;2023-03-01T17:53:32;5.60;1.00
25933;DHT22;13731;51.166;4.474;2023-03-01T17:56:03;5.50;1.00
25933;DHT22;13731;51.166;4.474;2023-03-01T17:58:30;5.50;1.00
25933;DHT22;13731;51.166;4.474;2023-03-01T18:01:09;5.50;1.00
25933;DHT22;13731;51.166;4.474;2023-03-01T18:03:35;5.40;3.50
25933;DHT22;13731;51.166;4.474;2023-03-01T18:06:01;5.40;3.90
25933;DHT22;13731;51.166;4.474;2023-03-01T18:08:28;5.30;17.10
25933;DHT22;13731;51.166;4.474;2023-03-01T18:11:00;5.20;23.70
25933;DHT22;13731;51.166;4.474;2023-03-01T18:13:26;5.20;28.80
25933;DHT22;13731;51.166;4.474;2023-03-01T18:15:51;4.90;44.80
25933;DHT22;13731;51.166;4.474;2023-03-01T18:18:17;5.00;64.40